Aérodrome :
LOGIN :

S'inscrire | Disclaimer

   EN    FR    IT 

 










Légende :    VFR   VFR Marginal   IFR   IFR Intensif   IFR Très Intensif
Visi : 
Plafond : 
>= 8 km
>= 3000ft
5 à 8 km
1000 à 3000 ft
1500m à 5 km
500 à 1000 ft
800 à 1500m
200 à 500 ft
< 800m
< 200 ft
Symboles :   Orages  Brouillard  Fortes neiges  Fortes précipitations  Vent > 20 kt
SIGMETs :   Divers  Orages  Givrage  Turbulence  Onde Orograph.  Cendres Volcan.







- Altitude de l'aérodrome : 204 ft
- Code IATA : AGF
- Voir les cartes d'approche


LFBA - Agen

DERNIER METAR :
  • 280700Z AUTO 21007KT CAVOK 10/07 Q1004 BECMG 26015G25KT

METARs EXPIRÉS :
  • 280630Z AUTO 20007KT CAVOK 09/07 Q1004 BECMG 26015G25KT
  • 280600Z AUTO 20007KT 180V240 CAVOK 09/07 Q1005 NOSIG
  • 280530Z AUTO 22006KT 180V250 CAVOK 09/07 Q1005
  • 280500Z AUTO 23007KT 200V260 CAVOK 09/07 Q1005
  • 280430Z AUTO 24007KT CAVOK 10/07 Q1005

TAF TAF LFBA
Valide du 28 à 06h jusqu'au 28 à 15h UTC


280500Z 2806/2815 23010KT 9999 BKN030
BECMG 2808/2809 26015G25KT
TEMPO 2809/2812 6000 RA SCT008 BKN015
TEMPO 2813/2815 28025G35KT 4000 SHRA SCT008 BKN015CB
Pas de NOTAMs connus pour ce terrain.
2 SIGMETs publiés pour la FIR Bordeaux (LFBB) :
 
Turbulence forte
LFBB SIGMET 2 VALID 280800/281200 LFPW
LFBB BORDEAUX FIR/UIR SEV TURB FCST NW OF LINE N4245 E00000 - N4400 E00245 SFC/FL080 STNR NC=
Turbulence forte
LFBB SIGMET 1 VALID 280400/280800 LFPW
LFBB BORDEAUX FIR/UIR SEV TURB FCST WI N4245 W00100 - N4300 W00145 - N4630 W00130 - N4630 W00045 SFC/FL060 STNR NC=



MET'MAP, la Météo Aéronautique d'un coup d'oeil ! - Copyright ORBIFLY Décembre 2007 - Disclaimer

ORBIFLY MET'MAP TEAM :

Programmation & Développement : Alexandra Zaïnal
Conception & Développement : Baudouin d'Aumeries
Co-Programmation & Développement : Marc-Olivier Méhu
Soutien technique & logistique : Manuel Goepfert

Contact : metmap@orbifly.com




SOURCES & CREDITS :

   NOAA